createdAt,value
2019-03-28T00:00:46.310Z,9.28
2019-03-28T00:01:46.229Z,9.21
2019-03-28T00:02:46.141Z,9.21
2019-03-28T00:03:46.060Z,9.18
2019-03-28T00:04:45.975Z,9.16
2019-03-28T00:05:45.889Z,9.18
2019-03-28T00:06:45.887Z,9.13
2019-03-28T00:07:45.724Z,9.10
2019-03-28T00:08:45.639Z,9.02
2019-03-28T00:09:45.557Z,9.08
2019-03-28T00:10:45.471Z,8.99
2019-03-28T00:11:45.391Z,9.14
2019-03-28T00:12:45.307Z,9.10
2019-03-28T00:13:45.219Z,9.03
2019-03-28T00:14:45.137Z,9.11
2019-03-28T00:15:45.054Z,8.95
2019-03-28T00:16:44.968Z,8.94
2019-03-28T00:17:44.886Z,9.00
2019-03-28T00:18:44.802Z,8.99
2019-03-28T00:19:44.723Z,9.00
2019-03-28T00:20:44.637Z,9.02
2019-03-28T00:21:44.553Z,8.91
2019-03-28T00:22:44.466Z,8.95
2019-03-28T00:23:44.385Z,8.97
2019-03-28T00:24:44.300Z,8.97
2019-03-28T00:25:44.215Z,9.13
2019-03-28T00:26:44.140Z,9.04
2019-03-28T00:27:44.048Z,9.08
2019-03-28T00:28:43.966Z,9.00
2019-03-28T00:29:43.883Z,9.06
2019-03-28T00:30:44.343Z,9.03
2019-03-28T00:31:43.715Z,9.08
2019-03-28T00:32:43.632Z,9.13
2019-03-28T00:33:44.357Z,8.99
2019-03-28T00:34:43.459Z,9.13
2019-03-28T00:35:43.377Z,9.21
2019-03-28T00:36:43.296Z,9.11
2019-03-28T00:37:43.214Z,9.10
2019-03-28T00:38:43.124Z,9.06
2019-03-28T00:39:43.041Z,9.18
2019-03-28T00:40:42.957Z,9.19
2019-03-28T00:41:42.875Z,9.18
2019-03-28T00:42:42.792Z,9.21
2019-03-28T00:43:42.704Z,9.25
2019-03-28T00:44:42.622Z,9.22
2019-03-28T00:45:44.568Z,9.26
2019-03-28T00:46:42.456Z,9.22
2019-03-28T00:47:42.379Z,9.23
2019-03-28T00:48:42.287Z,9.25
2019-03-28T00:49:42.203Z,9.25
2019-03-28T00:50:42.121Z,9.19
2019-03-28T00:51:43.260Z,9.22
2019-03-28T00:52:41.949Z,9.22
2019-03-28T00:53:41.880Z,9.21
2019-03-28T00:54:41.784Z,9.22
2019-03-28T00:55:41.703Z,9.18
2019-03-28T00:56:46.809Z,9.06
2019-03-28T00:57:41.539Z,9.04
2019-03-28T00:58:41.452Z,8.97
2019-03-28T00:59:41.367Z,9.03
2019-03-28T01:00:41.284Z,8.99
2019-03-28T01:01:41.207Z,9.10
2019-03-28T01:02:41.119Z,9.04
2019-03-28T01:03:41.035Z,9.10
2019-03-28T01:04:40.947Z,9.10
2019-03-28T01:05:40.863Z,9.11
2019-03-28T01:06:40.781Z,9.08
2019-03-28T01:07:40.701Z,9.04
2019-03-28T01:08:40.613Z,9.11
2019-03-28T01:09:40.533Z,9.13
2019-03-28T01:10:40.446Z,9.08
2019-03-28T01:11:40.361Z,9.02
2019-03-28T01:12:40.286Z,9.13
2019-03-28T01:13:40.196Z,9.03
2019-03-28T01:14:40.116Z,9.03
2019-03-28T01:15:40.024Z,9.06
2019-03-28T01:16:39.945Z,9.02
2019-03-28T01:17:39.860Z,9.06
2019-03-28T01:18:39.778Z,8.91
2019-03-28T01:19:39.690Z,8.95
2019-03-28T01:20:39.606Z,8.94
2019-03-28T01:21:39.518Z,8.94
2019-03-28T01:22:39.439Z,8.94
2019-03-28T01:23:39.356Z,8.99
2019-03-28T01:24:39.275Z,8.95
2019-03-28T01:25:39.190Z,9.00
2019-03-28T01:26:39.105Z,8.92
2019-03-28T01:27:39.023Z,8.89
2019-03-28T01:28:38.939Z,8.89
2019-03-28T01:29:38.853Z,8.92
2019-03-28T01:30:38.771Z,8.95
2019-03-28T01:31:38.685Z,8.94
2019-03-28T01:32:38.602Z,8.92
2019-03-28T01:33:38.519Z,8.91
2019-03-28T01:34:38.432Z,8.94
2019-03-28T01:35:38.349Z,8.91
2019-03-28T01:36:38.423Z,8.92
2019-03-28T01:37:38.181Z,8.91
2019-03-28T01:38:38.097Z,8.97
2019-03-28T01:39:38.036Z,8.91
2019-03-28T01:40:37.930Z,9.03
2019-03-28T01:41:37.843Z,8.94
2019-03-28T01:42:37.761Z,8.94
2019-03-28T01:43:37.676Z,8.97
2019-03-28T01:44:37.593Z,9.00
2019-03-28T01:45:37.514Z,8.91
2019-03-28T01:46:37.426Z,8.91
2019-03-28T01:47:37.342Z,8.97
2019-03-28T01:48:37.257Z,8.87
2019-03-28T01:49:37.175Z,8.92
2019-03-28T01:50:37.087Z,8.95
2019-03-28T01:51:37.008Z,8.88
2019-03-28T01:52:36.936Z,8.95
2019-03-28T01:53:36.836Z,8.92
2019-03-28T01:54:36.751Z,8.95
2019-03-28T01:55:36.666Z,8.70
2019-03-28T01:56:36.584Z,8.82
2019-03-28T01:57:36.503Z,8.82
2019-03-28T01:58:36.415Z,8.66
2019-03-28T01:59:36.334Z,8.73
2019-03-28T02:00:36.248Z,8.60
2019-03-28T02:01:36.166Z,8.56
2019-03-28T02:02:36.081Z,8.71
2019-03-28T02:03:35.994Z,8.69
2019-03-28T02:04:35.910Z,8.71
2019-03-28T02:05:35.825Z,8.69
2019-03-28T02:06:35.740Z,8.71
2019-03-28T02:07:35.655Z,8.67
2019-03-28T02:08:35.575Z,8.70
2019-03-28T02:09:35.491Z,8.69
2019-03-28T02:10:35.402Z,8.71
2019-03-28T02:11:35.321Z,8.73
2019-03-28T02:12:35.238Z,8.67
2019-03-28T02:13:35.155Z,8.74
2019-03-28T02:14:35.068Z,8.67
2019-03-28T02:15:34.984Z,8.74
2019-03-28T02:16:34.900Z,8.74
2019-03-28T02:17:34.813Z,8.70
2019-03-28T02:18:34.730Z,8.56
2019-03-28T02:19:34.647Z,8.63
2019-03-28T02:20:34.561Z,8.60
2019-03-28T02:21:34.483Z,8.58
2019-03-28T02:22:34.398Z,8.61
2019-03-28T02:23:34.308Z,8.64
2019-03-28T02:24:34.224Z,8.71
2019-03-28T02:25:34.142Z,8.64
2019-03-28T02:26:34.293Z,8.74
2019-03-28T02:27:33.979Z,8.76
2019-03-28T02:28:33.891Z,8.79
2019-03-28T02:29:33.805Z,8.81
2019-03-28T02:30:33.719Z,8.84
2019-03-28T02:31:33.640Z,8.85
2019-03-28T02:32:34.016Z,8.76
2019-03-28T02:33:33.466Z,8.85
2019-03-28T02:34:33.385Z,8.73
2019-03-28T02:35:33.322Z,8.58
2019-03-28T02:36:33.217Z,8.55
2019-03-28T02:37:33.136Z,8.58
2019-03-28T02:38:33.048Z,8.58
2019-03-28T02:39:32.962Z,8.51
2019-03-28T02:40:32.903Z,8.56
2019-03-28T02:41:32.795Z,8.48
2019-03-28T02:42:32.712Z,8.53
2019-03-28T02:43:32.624Z,8.51
2019-03-28T02:44:32.542Z,8.53
2019-03-28T02:45:32.456Z,8.56
2019-03-28T02:46:32.374Z,8.55
2019-03-28T02:47:32.295Z,8.56
2019-03-28T02:48:32.205Z,8.58
2019-03-28T02:49:32.127Z,8.60
2019-03-28T02:50:32.032Z,8.63
2019-03-28T02:51:31.954Z,8.55
2019-03-28T02:52:31.870Z,8.53
2019-03-28T02:53:31.786Z,8.48
2019-03-28T02:54:31.930Z,8.48
2019-03-28T02:55:31.615Z,8.56
2019-03-28T02:56:31.529Z,8.58
2019-03-28T02:57:40.921Z,8.58
2019-03-28T02:58:31.365Z,8.55
2019-03-28T02:59:31.276Z,8.64
2019-03-28T03:00:31.191Z,8.63
2019-03-28T03:01:31.119Z,8.58
2019-03-28T03:02:31.056Z,8.61
2019-03-28T03:03:30.940Z,8.63
2019-03-28T03:04:30.856Z,8.66
2019-03-28T03:05:30.770Z,8.60
2019-03-28T03:06:30.687Z,8.56
2019-03-28T03:07:30.602Z,8.61
2019-03-28T03:08:30.518Z,8.58
2019-03-28T03:09:30.436Z,8.76
2019-03-28T03:10:30.343Z,8.61
2019-03-28T03:11:30.262Z,8.63
2019-03-28T03:12:30.177Z,8.67
2019-03-28T03:13:30.094Z,8.71
2019-03-28T03:14:30.011Z,8.70
2019-03-28T03:15:30.302Z,8.70
2019-03-28T03:16:29.845Z,8.73
2019-03-28T03:17:29.758Z,8.78
2019-03-28T03:18:29.679Z,8.76
2019-03-28T03:19:29.588Z,8.73
2019-03-28T03:20:29.514Z,8.85
2019-03-28T03:21:29.421Z,8.74
2019-03-28T03:22:29.339Z,8.70
2019-03-28T03:23:29.253Z,8.71
2019-03-28T03:24:29.168Z,8.71
2019-03-28T03:25:29.097Z,8.78
2019-03-28T03:26:29.002Z,8.74
2019-03-28T03:27:28.914Z,8.67
2019-03-28T03:28:28.830Z,8.71
2019-03-28T03:29:28.747Z,8.76
2019-03-28T03:30:29.851Z,8.73
2019-03-28T03:31:28.577Z,8.71
2019-03-28T03:32:28.494Z,8.73
2019-03-28T03:33:28.410Z,8.70
2019-03-28T03:34:28.324Z,8.67
2019-03-28T03:35:28.596Z,8.64
2019-03-28T03:36:28.170Z,8.58
2019-03-28T03:37:28.068Z,8.66
2019-03-28T03:38:27.989Z,8.60
2019-03-28T03:39:27.904Z,8.71
2019-03-28T03:40:27.821Z,8.55
2019-03-28T03:41:27.737Z,8.63
2019-03-28T03:42:27.651Z,8.64
2019-03-28T03:43:27.572Z,8.66
2019-03-28T03:44:27.484Z,8.61
2019-03-28T03:45:27.403Z,8.60
2019-03-28T03:46:27.592Z,8.64
2019-03-28T03:47:27.249Z,8.55
2019-03-28T03:48:27.146Z,8.58
2019-03-28T03:49:27.064Z,8.61
2019-03-28T03:50:26.995Z,8.56
2019-03-28T03:51:26.894Z,8.63
2019-03-28T03:52:26.810Z,8.66
2019-03-28T03:53:26.724Z,8.66
2019-03-28T03:54:26.641Z,8.61
2019-03-28T03:55:26.561Z,8.58
2019-03-28T03:56:26.473Z,8.66
2019-03-28T03:57:26.389Z,8.61
2019-03-28T03:58:26.306Z,8.58
2019-03-28T03:59:26.221Z,8.61
2019-03-28T04:00:26.140Z,8.63
2019-03-28T04:01:26.051Z,8.53
2019-03-28T04:02:25.968Z,8.60
2019-03-28T04:03:25.881Z,8.55
2019-03-28T04:04:25.796Z,8.55
2019-03-28T04:05:25.715Z,8.66
2019-03-28T04:06:25.632Z,8.70
2019-03-28T04:07:25.548Z,8.67
2019-03-28T04:08:26.908Z,8.69
2019-03-28T04:09:25.378Z,8.64
2019-03-28T04:10:25.301Z,8.67
2019-03-28T04:11:25.212Z,8.66
2019-03-28T04:12:25.126Z,8.70
2019-03-28T04:13:25.040Z,8.71
2019-03-28T04:14:24.958Z,8.70
2019-03-28T04:15:24.873Z,8.66
2019-03-28T04:16:24.796Z,8.66
2019-03-28T04:17:24.704Z,8.70
2019-03-28T04:18:24.629Z,8.70
2019-03-28T04:19:24.537Z,8.69
2019-03-28T04:20:25.063Z,8.73
2019-03-28T04:21:24.368Z,8.67
2019-03-28T04:22:24.283Z,8.73
2019-03-28T04:23:24.201Z,8.70
2019-03-28T04:24:24.117Z,8.71
2019-03-28T04:25:24.030Z,8.74
2019-03-28T04:26:23.949Z,8.73
2019-03-28T04:27:23.870Z,8.82
2019-03-28T04:28:31.738Z,8.74
2019-03-28T04:29:23.694Z,8.73
2019-03-28T04:30:23.614Z,8.70
2019-03-28T04:31:23.528Z,8.67
2019-03-28T04:32:23.454Z,8.71
2019-03-28T04:33:23.368Z,8.71
2019-03-28T04:34:23.269Z,8.61
2019-03-28T04:35:23.196Z,8.70
2019-03-28T04:36:23.104Z,8.67
2019-03-28T04:37:23.020Z,8.74
2019-03-28T04:38:22.952Z,8.60
2019-03-28T04:39:22.851Z,8.63
2019-03-28T04:40:22.771Z,8.56
2019-03-28T04:41:22.687Z,8.56
2019-03-28T04:42:22.597Z,8.56
2019-03-28T04:43:22.510Z,8.58
2019-03-28T04:44:22.434Z,8.51
2019-03-28T04:45:22.348Z,8.61
2019-03-28T04:46:22.269Z,8.61
2019-03-28T04:47:22.179Z,8.61
2019-03-28T04:48:22.098Z,8.66
2019-03-28T04:49:22.012Z,8.60
2019-03-28T04:50:21.927Z,8.58
2019-03-28T04:51:21.871Z,8.69
2019-03-28T04:52:21.756Z,8.64
2019-03-28T04:53:21.673Z,8.63
2019-03-28T04:54:21.658Z,8.60
2019-03-28T04:55:21.578Z,8.60
2019-03-28T04:56:21.420Z,8.48
2019-03-28T04:57:21.337Z,8.56
2019-03-28T04:58:21.931Z,8.53
2019-03-28T04:59:21.168Z,8.48
2019-03-28T05:00:21.089Z,8.53
2019-03-28T05:01:20.998Z,8.51
2019-03-28T05:02:20.916Z,8.49
2019-03-28T05:03:20.830Z,8.44
2019-03-28T05:04:21.227Z,8.42
2019-03-28T05:05:20.664Z,8.48
2019-03-28T05:06:20.583Z,8.46
2019-03-28T05:07:20.495Z,8.42
2019-03-28T05:08:20.414Z,8.46
2019-03-28T05:09:20.326Z,8.46
2019-03-28T05:10:20.244Z,8.44
2019-03-28T05:11:20.160Z,8.52
2019-03-28T05:12:20.072Z,8.48
2019-03-28T05:13:20.325Z,8.45
2019-03-28T05:14:19.902Z,8.52
2019-03-28T05:15:20.503Z,8.60
2019-03-28T05:16:19.735Z,8.61
2019-03-28T05:17:19.650Z,8.55
2019-03-28T05:18:19.566Z,8.56
2019-03-28T05:19:19.482Z,8.60
2019-03-28T05:20:19.400Z,8.55
2019-03-28T05:21:19.315Z,8.58
2019-03-28T05:22:19.229Z,8.63
2019-03-28T05:23:19.145Z,8.58
2019-03-28T05:24:19.069Z,8.63
2019-03-28T05:25:18.978Z,8.53
2019-03-28T05:26:18.893Z,8.58
2019-03-28T05:27:18.808Z,8.60
2019-03-28T05:28:18.726Z,8.60
2019-03-28T05:29:18.653Z,8.56
2019-03-28T05:30:18.547Z,8.60
2019-03-28T05:31:18.472Z,8.58
2019-03-28T05:32:18.387Z,8.61
2019-03-28T05:33:18.303Z,8.63
2019-03-28T05:34:18.218Z,8.53
2019-03-28T05:35:18.136Z,8.66
2019-03-28T05:36:18.543Z,8.73
2019-03-28T05:37:17.970Z,8.55
2019-03-28T05:38:17.883Z,8.74
2019-03-28T05:39:17.797Z,8.74
2019-03-28T05:40:17.714Z,8.69
2019-03-28T05:41:17.687Z,8.70
2019-03-28T05:42:17.548Z,8.76
2019-03-28T05:43:17.466Z,8.76
2019-03-28T05:44:17.381Z,8.74
2019-03-28T05:45:17.297Z,8.73
2019-03-28T05:46:17.213Z,8.71
2019-03-28T05:47:17.133Z,8.67
2019-03-28T05:48:17.042Z,8.55
2019-03-28T05:49:16.959Z,8.52
2019-03-28T05:50:16.867Z,8.56
2019-03-28T05:51:16.790Z,8.55
2019-03-28T05:52:16.706Z,8.58
2019-03-28T05:53:16.625Z,8.61
2019-03-28T05:54:16.539Z,8.63
2019-03-28T05:55:16.456Z,8.55
2019-03-28T05:56:16.377Z,8.55
2019-03-28T05:57:16.288Z,8.53
2019-03-28T05:58:16.202Z,8.60
2019-03-28T05:59:16.118Z,8.53
2019-03-28T06:00:16.047Z,8.52
2019-03-28T06:01:15.954Z,8.49
2019-03-28T06:02:15.866Z,8.51
2019-03-28T06:03:16.304Z,8.48
2019-03-28T06:04:15.700Z,8.49
2019-03-28T06:05:15.617Z,8.48
2019-03-28T06:06:15.531Z,8.56
2019-03-28T06:07:15.444Z,8.64
2019-03-28T06:08:15.366Z,8.66
2019-03-28T06:09:15.277Z,8.64
2019-03-28T06:10:16.504Z,8.70
2019-03-28T06:11:15.110Z,8.79
2019-03-28T06:12:15.022Z,8.74
2019-03-28T06:13:14.944Z,8.79
2019-03-28T06:14:14.858Z,8.85
2019-03-28T06:15:14.771Z,8.79
2019-03-28T06:16:14.688Z,8.78
2019-03-28T06:17:14.608Z,8.89
2019-03-28T06:18:14.521Z,8.89
2019-03-28T06:19:14.439Z,8.95
2019-03-28T06:20:14.352Z,8.89
2019-03-28T06:21:14.274Z,8.91
2019-03-28T06:22:14.186Z,8.97
2019-03-28T06:23:14.102Z,8.92
2019-03-28T06:24:21.728Z,8.95
2019-03-28T06:26:18.328Z,8.91
2019-03-28T06:27:18.227Z,8.91
2019-03-28T06:28:18.146Z,8.95
2019-03-28T06:29:23.791Z,8.99
2019-03-28T06:30:18.413Z,8.92
2019-03-28T06:31:17.891Z,8.91
2019-03-28T06:32:17.804Z,8.88
2019-03-28T06:33:17.724Z,8.89
2019-03-28T06:34:17.640Z,8.89
2019-03-28T06:35:18.298Z,8.94
2019-03-28T06:36:17.471Z,8.74
2019-03-28T06:37:17.388Z,8.89
2019-03-28T06:38:17.305Z,8.81
2019-03-28T06:39:17.221Z,8.76
2019-03-28T06:40:17.136Z,8.84
2019-03-28T06:41:17.051Z,8.94
2019-03-28T06:42:16.968Z,8.94
2019-03-28T06:43:16.884Z,8.92
2019-03-28T06:44:16.801Z,8.97
2019-03-28T06:45:16.712Z,8.87
2019-03-28T06:46:16.630Z,8.94
2019-03-28T06:47:16.546Z,8.94
2019-03-28T06:48:16.466Z,8.97
2019-03-28T06:49:16.383Z,8.94
2019-03-28T06:50:16.303Z,8.92
2019-03-28T06:51:16.213Z,9.10
2019-03-28T06:52:16.130Z,9.04
2019-03-28T06:53:16.049Z,9.11
2019-03-28T06:54:15.962Z,8.95
2019-03-28T06:55:15.879Z,8.99
2019-03-28T06:56:15.796Z,9.00
2019-03-28T06:57:17.690Z,9.08
2019-03-28T06:58:15.630Z,9.13
2019-03-28T06:59:15.549Z,9.13
2019-03-28T07:00:15.460Z,9.18
2019-03-28T07:01:15.381Z,9.22
2019-03-28T07:02:15.296Z,9.23
2019-03-28T07:03:15.206Z,9.26
2019-03-28T07:04:15.130Z,9.26
2019-03-28T07:05:15.045Z,9.31
2019-03-28T07:06:14.966Z,9.36
2019-03-28T07:07:15.215Z,9.37
2019-03-28T07:08:14.792Z,9.43
2019-03-28T07:09:14.718Z,9.40
2019-03-28T07:10:14.628Z,9.34
2019-03-28T07:11:14.542Z,9.37
2019-03-28T07:12:14.462Z,9.43
2019-03-28T07:13:14.380Z,9.50
2019-03-28T07:14:14.295Z,9.50
2019-03-28T07:15:14.213Z,9.48
2019-03-28T07:16:14.127Z,9.59
2019-03-28T07:17:14.048Z,9.62
2019-03-28T07:18:13.963Z,9.65
2019-03-28T07:19:13.882Z,9.62
2019-03-28T07:20:13.798Z,9.66
2019-03-28T07:21:13.720Z,9.66
2019-03-28T07:22:13.634Z,9.72
2019-03-28T07:23:13.551Z,9.74
2019-03-28T07:24:13.471Z,9.73
2019-03-28T07:25:13.384Z,9.79
2019-03-28T07:26:13.308Z,9.77
2019-03-28T07:27:13.216Z,9.83
2019-03-28T07:28:13.135Z,9.89
2019-03-28T07:29:13.051Z,9.95
2019-03-28T07:30:12.970Z,9.87
2019-03-28T07:31:12.924Z,9.91
2019-03-28T07:32:12.814Z,9.95
2019-03-28T07:33:12.728Z,9.94
2019-03-28T07:34:13.717Z,9.91
2019-03-28T07:35:12.560Z,9.99
2019-03-28T07:36:12.480Z,10.05
2019-03-28T07:37:12.611Z,10.01
2019-03-28T07:38:12.312Z,10.04
2019-03-28T07:39:12.228Z,10.02
2019-03-28T07:40:12.149Z,10.01
2019-03-28T07:41:12.065Z,10.01
2019-03-28T07:42:11.991Z,10.04
2019-03-28T07:43:11.899Z,9.99
2019-03-28T07:44:11.818Z,9.99
2019-03-28T07:45:11.732Z,9.99
2019-03-28T07:46:11.651Z,10.10
2019-03-28T07:47:11.576Z,10.02
2019-03-28T07:48:11.487Z,10.01
2019-03-28T07:49:11.404Z,10.01
2019-03-28T07:50:11.692Z,10.05
2019-03-28T07:51:11.239Z,10.13
2019-03-28T07:52:11.159Z,10.09
2019-03-28T07:53:11.101Z,10.05
2019-03-28T07:54:10.995Z,10.09
2019-03-28T07:55:10.917Z,10.04
2019-03-28T07:56:10.829Z,10.05
2019-03-28T07:57:10.747Z,10.05
2019-03-28T07:58:10.661Z,10.02
2019-03-28T07:59:10.582Z,10.04
2019-03-28T08:00:10.501Z,10.13
2019-03-28T08:01:10.438Z,10.13
2019-03-28T08:02:10.331Z,10.02
2019-03-28T08:03:10.253Z,10.09
2019-03-28T08:04:12.249Z,10.10
2019-03-28T08:05:10.104Z,10.04
2019-03-28T08:06:12.638Z,10.05
2019-03-28T08:07:09.925Z,10.05
2019-03-28T08:08:09.841Z,10.09
2019-03-28T08:09:09.758Z,10.15
2019-03-28T08:10:09.677Z,10.19
2019-03-28T08:11:09.617Z,10.20
2019-03-28T08:12:21.867Z,10.25
2019-03-28T08:13:09.432Z,10.20
2019-03-28T08:14:09.348Z,10.23
2019-03-28T08:15:09.273Z,10.33
2019-03-28T08:16:09.183Z,10.22
2019-03-28T08:17:09.107Z,10.34
2019-03-28T08:18:09.027Z,10.28
2019-03-28T08:19:09.001Z,10.34
2019-03-28T08:20:08.856Z,10.34
2019-03-28T08:21:08.775Z,10.34
2019-03-28T08:22:08.691Z,10.38
2019-03-28T08:23:08.611Z,10.44
2019-03-28T08:24:08.524Z,10.42
2019-03-28T08:25:11.646Z,10.44
2019-03-28T08:26:08.380Z,10.42
2019-03-28T08:27:08.285Z,10.44
2019-03-28T08:28:08.203Z,10.53
2019-03-28T08:29:08.120Z,10.60
2019-03-28T08:30:18.253Z,10.53
2019-03-28T08:31:07.956Z,10.57
2019-03-28T08:32:08.896Z,10.61
2019-03-28T08:33:07.789Z,10.72
2019-03-28T08:34:07.708Z,10.71
2019-03-28T08:35:07.634Z,10.76
2019-03-28T08:36:07.549Z,10.75
2019-03-28T08:37:07.470Z,10.74
2019-03-28T08:38:10.042Z,10.71
2019-03-28T08:39:07.301Z,10.81
2019-03-28T08:40:07.223Z,10.82
2019-03-28T08:41:07.392Z,10.81
2019-03-28T08:42:07.062Z,10.87
2019-03-28T08:43:06.980Z,10.79
2019-03-28T08:44:07.428Z,10.90
2019-03-28T08:45:07.190Z,10.82
2019-03-28T08:46:08.799Z,10.89
2019-03-28T08:47:06.654Z,10.87
2019-03-28T08:48:06.608Z,10.97
2019-03-28T08:49:06.502Z,10.89
2019-03-28T08:50:06.413Z,11.00
2019-03-28T08:51:06.349Z,10.86
2019-03-28T08:52:06.246Z,10.93
2019-03-28T08:53:06.169Z,10.97
2019-03-28T08:54:06.093Z,10.87
2019-03-28T08:55:06.005Z,10.94
2019-03-28T08:56:05.918Z,10.89
2019-03-28T08:57:05.844Z,10.86
2019-03-28T08:58:05.759Z,10.94
2019-03-28T08:59:05.683Z,10.94
2019-03-28T09:00:05.658Z,11.00
2019-03-28T09:01:05.915Z,10.86
2019-03-28T09:02:05.586Z,10.90
2019-03-28T09:03:05.360Z,10.97
2019-03-28T09:04:05.272Z,10.99
2019-03-28T09:05:05.193Z,11.12
2019-03-28T09:06:05.113Z,11.11
2019-03-28T09:07:05.029Z,11.15
2019-03-28T09:08:04.946Z,11.15
2019-03-28T09:09:04.871Z,11.18
2019-03-28T09:10:04.802Z,11.15
2019-03-28T09:11:04.705Z,11.25
2019-03-28T09:12:04.630Z,11.25
2019-03-28T09:13:25.528Z,11.25
2019-03-28T09:14:04.465Z,11.22
2019-03-28T09:15:04.384Z,11.25
2019-03-28T09:16:04.313Z,11.32
2019-03-28T09:17:04.218Z,11.23
2019-03-28T09:18:04.156Z,11.32
2019-03-28T09:19:04.070Z,11.40
2019-03-28T09:20:03.993Z,11.45
2019-03-28T09:21:03.898Z,11.45
2019-03-28T09:22:03.829Z,11.48
2019-03-28T09:23:03.742Z,11.48
2019-03-28T09:24:03.659Z,11.52
2019-03-28T09:25:03.596Z,11.54
2019-03-28T09:26:04.556Z,11.52
2019-03-28T09:27:03.417Z,11.65
2019-03-28T09:28:03.338Z,11.69
2019-03-28T09:29:03.255Z,11.69
2019-03-28T09:30:03.179Z,11.72
2019-03-28T09:31:03.099Z,11.80
2019-03-28T09:32:03.018Z,11.80
2019-03-28T09:33:02.947Z,11.77
2019-03-28T09:34:02.862Z,11.90
2019-03-28T09:35:02.777Z,11.86
2019-03-28T09:36:02.695Z,11.94
2019-03-28T09:37:02.618Z,11.83
2019-03-28T09:38:02.538Z,11.94
2019-03-28T09:39:02.457Z,11.95
2019-03-28T09:40:02.378Z,11.97
2019-03-28T09:41:02.300Z,11.94
2019-03-28T09:42:02.220Z,12.04
2019-03-28T09:43:02.141Z,12.07
2019-03-28T09:44:02.063Z,12.03
2019-03-28T09:45:01.982Z,12.02
2019-03-28T09:46:02.116Z,12.09
2019-03-28T09:47:01.821Z,12.12
2019-03-28T09:48:01.746Z,12.21
2019-03-28T09:49:01.672Z,12.21
2019-03-28T09:50:01.588Z,12.24
2019-03-28T09:51:01.502Z,12.22
2019-03-28T09:52:01.426Z,12.28
2019-03-28T09:53:01.347Z,12.31
2019-03-28T09:54:01.267Z,12.37
2019-03-28T09:55:01.188Z,12.36
2019-03-28T09:56:01.106Z,12.42
2019-03-28T09:57:01.029Z,12.43
2019-03-28T09:58:00.955Z,12.43
2019-03-28T09:59:00.877Z,12.50
2019-03-28T10:00:00.794Z,12.49
2019-03-28T10:01:03.263Z,12.49
2019-03-28T10:02:01.354Z,12.58
2019-03-28T10:03:00.558Z,12.57
2019-03-28T10:04:00.478Z,12.68
2019-03-28T10:05:00.572Z,12.65
2019-03-28T10:06:00.321Z,12.70
2019-03-28T10:07:00.246Z,12.68
2019-03-28T10:08:00.163Z,12.62
2019-03-28T10:09:00.089Z,12.65
2019-03-28T10:10:00.585Z,12.70
2019-03-28T10:10:59.925Z,12.78
2019-03-28T10:11:59.847Z,12.65
2019-03-28T10:12:59.773Z,12.73
2019-03-28T10:13:59.692Z,12.82
2019-03-28T10:14:59.618Z,12.78
2019-03-28T10:15:59.538Z,12.82
2019-03-28T10:16:59.458Z,12.86
2019-03-28T10:17:59.383Z,12.79
2019-03-28T10:18:59.301Z,12.85
2019-03-28T10:19:59.223Z,12.75
2019-03-28T10:20:59.146Z,12.85
2019-03-28T10:21:59.065Z,12.87
2019-03-28T10:22:58.990Z,12.82
2019-03-28T10:23:58.913Z,12.91
2019-03-28T10:24:58.839Z,12.97
2019-03-28T10:25:58.752Z,12.93
2019-03-28T10:26:58.677Z,12.93
2019-03-28T10:27:58.606Z,12.95
2019-03-28T10:28:58.521Z,12.93
2019-03-28T10:29:58.442Z,12.97
2019-03-28T10:30:58.362Z,12.94
2019-03-28T10:31:58.282Z,12.98
2019-03-28T10:32:58.373Z,13.00
2019-03-28T10:33:58.132Z,13.05
2019-03-28T10:34:58.052Z,13.09
2019-03-28T10:35:57.975Z,13.12
2019-03-28T10:36:57.898Z,13.05
2019-03-28T10:37:57.817Z,13.16
2019-03-28T10:38:57.753Z,13.15
2019-03-28T10:39:57.670Z,13.20
2019-03-28T10:40:57.593Z,13.11
2019-03-28T10:41:57.517Z,13.05
2019-03-28T10:42:57.438Z,13.09
2019-03-28T10:43:57.375Z,13.09
2019-03-28T10:44:57.282Z,13.04
2019-03-28T10:45:57.204Z,13.12
2019-03-28T10:46:57.126Z,13.11
2019-03-28T10:47:57.049Z,13.09
2019-03-28T10:48:57.029Z,13.08
2019-03-28T10:49:56.893Z,13.09
2019-03-28T10:50:56.821Z,13.15
2019-03-28T10:51:56.738Z,13.13
2019-03-28T10:52:56.660Z,13.15
2019-03-28T10:53:56.582Z,13.11
2019-03-28T10:54:56.504Z,13.11
2019-03-28T10:55:56.425Z,13.03
2019-03-28T10:56:57.996Z,13.08
2019-03-28T10:57:56.268Z,13.00
2019-03-28T10:58:56.198Z,12.94
2019-03-28T10:59:56.111Z,12.95
2019-03-28T11:00:56.506Z,12.93
2019-03-28T11:01:55.956Z,13.04
2019-03-28T11:02:55.918Z,12.94
2019-03-28T11:03:56.449Z,13.09
2019-03-28T11:04:55.719Z,13.04
2019-03-28T11:05:55.642Z,13.04
2019-03-28T11:06:55.563Z,13.09
2019-03-28T11:07:55.485Z,13.05
2019-03-28T11:08:55.412Z,13.04
2019-03-28T11:09:55.330Z,13.13
2019-03-28T11:10:55.252Z,13.12
2019-03-28T11:11:55.174Z,13.05
2019-03-28T11:12:55.098Z,13.12
2019-03-28T11:13:55.019Z,13.12
2019-03-28T11:14:54.943Z,13.05
2019-03-28T11:15:54.858Z,13.16
2019-03-28T11:16:55.959Z,13.13
2019-03-28T11:17:54.703Z,13.12
2019-03-28T11:18:54.623Z,13.04
2019-03-28T11:19:56.059Z,13.11
2019-03-28T11:20:54.469Z,13.11
2019-03-28T11:21:54.387Z,13.05
2019-03-28T11:22:54.313Z,13.04
2019-03-28T11:23:54.229Z,13.09
2019-03-28T11:24:54.165Z,12.95
2019-03-28T11:25:57.219Z,13.09
2019-03-28T11:26:53.995Z,12.95
2019-03-28T11:27:53.914Z,12.97
2019-03-28T11:28:53.836Z,12.94
2019-03-28T11:29:53.758Z,12.97
2019-03-28T11:30:53.679Z,12.94
2019-03-28T11:31:53.601Z,13.05
2019-03-28T11:32:53.522Z,12.95
2019-03-28T11:33:53.443Z,12.95
2019-03-28T11:34:53.365Z,13.04
2019-03-28T11:35:53.284Z,13.01
2019-03-28T11:36:53.205Z,12.94
2019-03-28T11:37:53.134Z,13.01
2019-03-28T11:38:53.046Z,13.08
2019-03-28T11:39:52.969Z,13.00
2019-03-28T11:40:52.891Z,12.93
2019-03-28T11:41:52.811Z,12.98
2019-03-28T11:42:53.281Z,12.94
2019-03-28T11:43:52.651Z,12.91
2019-03-28T11:44:52.586Z,12.97
2019-03-28T11:45:52.494Z,12.91
2019-03-28T11:46:52.420Z,12.94
2019-03-28T11:47:52.334Z,12.97
2019-03-28T11:48:52.256Z,12.94
2019-03-28T11:49:52.180Z,12.90
2019-03-28T11:50:52.098Z,12.95
2019-03-28T11:51:52.016Z,13.00
2019-03-28T11:52:51.939Z,12.94
2019-03-28T11:53:51.860Z,12.94
2019-03-28T11:54:51.780Z,12.94
2019-03-28T11:55:51.702Z,12.94
2019-03-28T11:56:51.622Z,12.94
2019-03-28T11:57:51.546Z,12.94
2019-03-28T11:58:51.462Z,12.94
2019-03-28T11:59:51.382Z,12.97
2019-03-28T12:00:51.308Z,13.03
2019-03-28T12:01:59.723Z,12.97
2019-03-28T12:02:51.149Z,12.93
2019-03-28T12:03:51.071Z,12.97
2019-03-28T12:04:50.989Z,12.94
2019-03-28T12:05:53.116Z,12.94
2019-03-28T12:06:50.988Z,12.95
2019-03-28T12:07:50.752Z,12.90
2019-03-28T12:08:50.674Z,12.97
2019-03-28T12:09:50.591Z,12.95
2019-03-28T12:10:50.512Z,12.95
2019-03-28T12:11:52.912Z,12.94
2019-03-28T12:12:50.363Z,12.94
2019-03-28T12:13:50.276Z,12.97
2019-03-28T12:14:50.194Z,12.94
2019-03-28T12:15:50.890Z,12.94
2019-03-28T12:16:50.035Z,12.90
2019-03-28T12:17:49.961Z,12.94
2019-03-28T12:18:49.881Z,12.94
2019-03-28T12:19:49.800Z,13.00
2019-03-28T12:20:49.719Z,12.97
2019-03-28T12:21:49.643Z,12.86
2019-03-28T12:22:49.562Z,12.85
2019-03-28T12:23:49.481Z,12.91
2019-03-28T12:24:49.403Z,12.83
2019-03-28T12:25:49.324Z,12.82
2019-03-28T12:26:49.243Z,12.85
2019-03-28T12:27:49.166Z,12.86
2019-03-28T12:28:49.090Z,12.83
2019-03-28T12:29:49.800Z,12.86
2019-03-28T12:30:48.926Z,12.91
2019-03-28T12:31:48.845Z,12.85
2019-03-28T12:32:48.767Z,12.94
2019-03-28T12:33:48.689Z,12.87
2019-03-28T12:34:48.609Z,12.93
2019-03-28T12:35:48.528Z,12.93
2019-03-28T12:36:48.457Z,12.90
2019-03-28T12:37:48.372Z,12.85
2019-03-28T12:38:48.294Z,12.90
2019-03-28T12:39:48.209Z,12.83
2019-03-28T12:40:48.130Z,12.87
2019-03-28T12:41:48.053Z,12.91
2019-03-28T12:42:47.975Z,12.87
2019-03-28T12:43:47.893Z,12.86
2019-03-28T12:44:56.893Z,12.93
2019-03-28T12:45:47.740Z,12.91
2019-03-28T12:46:47.654Z,12.93
2019-03-28T12:47:47.576Z,12.86
2019-03-28T12:48:47.496Z,12.90
2019-03-28T12:49:47.420Z,12.93
2019-03-28T12:50:58.207Z,12.95
2019-03-28T12:51:47.257Z,12.98
2019-03-28T12:52:47.180Z,12.95
2019-03-28T12:53:47.104Z,12.97
2019-03-28T12:54:47.018Z,12.97
2019-03-28T12:55:46.940Z,12.97
2019-03-28T12:56:46.861Z,12.97
2019-03-28T12:57:48.355Z,13.03
2019-03-28T12:58:46.700Z,12.97
2019-03-28T12:59:46.622Z,12.94
2019-03-28T13:00:46.541Z,12.94
2019-03-28T13:01:46.466Z,13.04
2019-03-28T13:02:46.381Z,12.94
2019-03-28T13:03:46.636Z,12.95
2019-03-28T13:04:46.227Z,12.91
2019-03-28T13:05:46.144Z,12.95
2019-03-28T13:06:46.070Z,12.95
2019-03-28T13:07:45.984Z,12.93